createdAt,value
2022-12-17T00:00:33.334Z,-2.20
2022-12-17T00:03:30.752Z,-2.22
2022-12-17T00:06:15.592Z,-2.20
2022-12-17T00:12:01.155Z,-2.18
2022-12-17T00:14:46.817Z,-2.22
2022-12-17T00:17:32.459Z,-2.19
2022-12-17T00:20:19.165Z,-2.16
2022-12-17T00:23:04.396Z,-2.19
2022-12-17T00:25:49.994Z,-2.20
2022-12-17T00:28:35.464Z,-2.13
2022-12-17T00:31:20.972Z,-2.19
2022-12-17T00:34:06.770Z,-2.21
2022-12-17T00:36:53.295Z,-2.19
2022-12-17T00:39:41.024Z,-2.15
2022-12-17T00:42:26.481Z,-2.16
2022-12-17T00:45:11.808Z,-2.18
2022-12-17T00:47:59.362Z,-2.15
2022-12-17T00:50:44.768Z,-2.15
2022-12-17T00:53:31.408Z,-2.20
2022-12-17T00:56:16.847Z,-2.13
2022-12-17T00:59:02.355Z,-2.17
2022-12-17T01:01:47.992Z,-2.18
2022-12-17T01:04:33.704Z,-2.13
2022-12-17T01:07:18.930Z,-2.11
2022-12-17T01:10:06.101Z,-2.00
2022-12-17T01:12:51.429Z,-2.03
2022-12-17T01:15:37.530Z,-2.03
2022-12-17T01:18:23.214Z,-2.03
2022-12-17T01:21:14.612Z,-1.98
2022-12-17T01:24:00.042Z,-1.95
2022-12-17T01:26:47.268Z,-1.99
2022-12-17T01:29:32.717Z,-2.07
2022-12-17T01:32:18.071Z,-2.08
2022-12-17T01:35:03.388Z,-2.09
2022-12-17T01:37:48.885Z,-2.14
2022-12-17T01:40:34.307Z,-2.12
2022-12-17T01:43:21.013Z,-2.07
2022-12-17T01:46:08.564Z,-2.14
2022-12-17T01:49:00.468Z,-2.13
2022-12-17T01:51:48.607Z,-2.13
2022-12-17T01:54:35.533Z,-2.11
2022-12-17T01:57:23.462Z,-2.07
2022-12-17T02:00:17.425Z,-2.07
2022-12-17T02:03:03.627Z,-2.05
2022-12-17T02:05:53.597Z,-2.02
2022-12-17T02:08:48.265Z,-2.02
2022-12-17T02:11:44.774Z,-2.00
2022-12-17T02:14:40.905Z,-1.96
2022-12-17T02:17:33.569Z,-2.00
2022-12-17T02:20:33.019Z,-1.88
2022-12-17T02:23:27.441Z,-1.91
2022-12-17T02:26:18.354Z,-1.91
2022-12-17T02:29:08.614Z,-1.96
2022-12-17T02:31:56.741Z,-1.94
2022-12-17T02:34:42.121Z,-1.82
2022-12-17T02:37:27.550Z,-1.81
2022-12-17T02:40:13.086Z,-1.85
2022-12-17T02:43:00.411Z,-1.80
2022-12-17T02:45:47.468Z,-1.82
2022-12-17T02:48:33.181Z,-1.81
2022-12-17T02:51:18.749Z,-1.86
2022-12-17T02:54:08.927Z,-1.88
2022-12-17T02:56:54.844Z,-1.82
2022-12-17T02:59:40.314Z,-1.84
2022-12-17T03:02:27.133Z,-1.83
2022-12-17T03:05:42.648Z,-1.83
2022-12-17T03:08:18.050Z,-1.78
2022-12-17T03:11:03.456Z,-1.78
2022-12-17T03:13:48.916Z,-1.81
2022-12-17T03:16:37.987Z,-1.86
2022-12-17T03:19:25.286Z,-1.86
2022-12-17T03:22:10.698Z,-1.80
2022-12-17T03:24:56.109Z,-1.79
2022-12-17T03:27:43.575Z,-1.80
2022-12-17T03:30:35.512Z,-1.75
2022-12-17T03:33:21.634Z,-1.79
2022-12-17T03:36:11.386Z,-1.74
2022-12-17T03:38:56.881Z,-1.82
2022-12-17T03:41:42.300Z,-1.80
2022-12-17T03:44:27.662Z,-1.82
2022-12-17T03:47:19.241Z,-1.81
2022-12-17T03:50:04.695Z,-1.79
2022-12-17T03:52:51.850Z,-1.81
2022-12-17T03:55:37.120Z,-1.81
2022-12-17T03:58:22.551Z,-1.79
2022-12-17T04:01:08.004Z,-1.82
2022-12-17T04:03:53.245Z,-1.78
2022-12-17T04:06:38.588Z,-1.83
2022-12-17T04:09:25.639Z,-1.76
2022-12-17T04:12:11.191Z,-1.80
2022-12-17T04:14:56.894Z,-1.82
2022-12-17T04:17:42.364Z,-1.79
2022-12-17T04:20:34.244Z,-1.81
2022-12-17T04:23:19.778Z,-1.84
2022-12-17T04:26:07.506Z,-1.79
2022-12-17T04:28:52.975Z,-1.82
2022-12-17T04:31:38.389Z,-1.79
2022-12-17T04:34:23.841Z,-1.76
2022-12-17T04:37:09.331Z,-1.72
2022-12-17T04:39:54.803Z,-1.75
2022-12-17T04:42:41.879Z,-1.65
2022-12-17T04:45:37.869Z,-1.66
2022-12-17T04:48:25.195Z,-1.74
2022-12-17T04:51:50.475Z,-1.72
2022-12-17T04:54:36.218Z,-1.86
2022-12-17T04:57:21.623Z,-1.76
2022-12-17T05:00:08.919Z,-1.71
2022-12-17T05:02:54.547Z,-1.69
2022-12-17T05:05:44.061Z,-1.66
2022-12-17T05:08:29.385Z,-1.69
2022-12-17T05:11:19.947Z,-1.63
2022-12-17T05:14:05.370Z,-1.60
2022-12-17T05:16:52.464Z,-1.65
2022-12-17T05:19:38.054Z,-1.56
2022-12-17T05:22:23.126Z,-1.62
2022-12-17T05:25:08.598Z,-1.56
2022-12-17T05:27:54.294Z,-1.54
2022-12-17T05:30:39.681Z,-1.58
2022-12-17T05:33:28.028Z,-1.59
2022-12-17T05:36:13.368Z,-1.53
2022-12-17T05:38:58.613Z,-1.53
2022-12-17T05:41:44.339Z,-1.49
2022-12-17T05:44:29.959Z,-1.49
2022-12-17T05:47:15.437Z,-1.47
2022-12-17T05:50:02.568Z,-1.47
2022-12-17T05:52:48.413Z,-1.48
2022-12-17T05:55:34.494Z,-1.45
2022-12-17T05:58:24.016Z,-1.46
2022-12-17T06:01:13.403Z,-1.48
2022-12-17T06:03:59.238Z,-1.51
2022-12-17T06:06:46.182Z,-1.45
2022-12-17T06:09:31.614Z,-1.44
2022-12-17T06:12:17.072Z,-1.42
2022-12-17T06:15:02.416Z,-1.51
2022-12-17T06:17:59.222Z,-1.48
2022-12-17T06:20:44.673Z,-1.54
2022-12-17T06:23:31.436Z,-1.60
2022-12-17T06:26:16.835Z,-1.61
2022-12-17T06:29:02.691Z,-1.61
2022-12-17T06:31:48.076Z,-1.61
2022-12-17T06:34:33.775Z,-1.61
2022-12-17T06:37:19.120Z,-1.62
2022-12-17T06:40:03.312Z,-1.59
2022-12-17T06:42:48.688Z,-1.65
2022-12-17T06:45:34.370Z,-1.66
2022-12-17T06:48:21.445Z,-1.80
2022-12-17T06:51:06.825Z,-1.72
2022-12-17T06:53:52.440Z,-1.76
2022-12-17T06:56:39.051Z,-1.74
2022-12-17T06:59:24.582Z,-1.77
2022-12-17T07:02:18.485Z,-1.73
2022-12-17T07:05:04.067Z,-1.73
2022-12-17T07:07:49.415Z,-1.74
2022-12-17T07:10:34.974Z,-1.75
2022-12-17T07:13:25.173Z,-1.76
2022-12-17T07:16:11.555Z,-1.70
2022-12-17T07:18:57.351Z,-1.73
2022-12-17T07:21:43.611Z,-1.72
2022-12-17T07:24:29.287Z,-1.67
2022-12-17T07:27:14.705Z,-1.74
2022-12-17T07:30:01.385Z,-1.72
2022-12-17T07:32:46.781Z,-1.75
2022-12-17T07:35:32.263Z,-1.81
2022-12-17T07:38:18.721Z,-1.87
2022-12-17T07:41:04.670Z,-1.88
2022-12-17T07:43:53.158Z,-1.95
2022-12-17T07:46:40.595Z,-1.95
2022-12-17T07:49:26.535Z,-1.88
2022-12-17T07:52:12.956Z,-1.92
2022-12-17T07:54:58.277Z,-1.88
2022-12-17T07:57:43.992Z,-1.85
2022-12-17T08:00:33.357Z,-1.85
2022-12-17T08:03:20.464Z,-1.88
2022-12-17T08:06:06.836Z,-1.89
2022-12-17T08:11:51.392Z,-1.92
2022-12-17T08:14:37.197Z,-1.85
2022-12-17T08:17:22.606Z,-1.83
2022-12-17T08:20:09.598Z,-1.86
2022-12-17T08:22:55.110Z,-1.83
2022-12-17T08:25:47.541Z,-1.83
2022-12-17T08:28:50.277Z,-1.88
2022-12-17T08:31:45.068Z,-1.85
2022-12-17T08:34:30.515Z,-1.78
2022-12-17T08:37:17.477Z,-1.81
2022-12-17T08:40:02.817Z,-1.85
2022-12-17T08:42:49.238Z,-1.90
2022-12-17T08:45:35.295Z,-1.81
2022-12-17T08:48:22.082Z,-1.84
2022-12-17T08:51:07.675Z,-1.85
2022-12-17T08:53:57.657Z,-1.81
2022-12-17T08:56:44.089Z,-1.72
2022-12-17T08:59:29.446Z,-1.76
2022-12-17T09:02:15.391Z,-1.74
2022-12-17T09:05:00.916Z,-1.74
2022-12-17T09:07:46.322Z,-1.69
2022-12-17T09:10:32.806Z,-1.67
2022-12-17T09:13:20.178Z,-1.60
2022-12-17T09:16:10.558Z,-1.59
2022-12-17T09:18:56.318Z,-1.53
2022-12-17T09:21:42.281Z,-1.52
2022-12-17T09:24:28.603Z,-1.46
2022-12-17T09:27:15.580Z,-1.47
2022-12-17T09:30:01.070Z,-1.43
2022-12-17T09:32:46.511Z,-1.43
2022-12-17T09:35:31.983Z,-1.32
2022-12-17T09:38:17.429Z,-1.29
2022-12-17T09:41:09.837Z,-1.30
2022-12-17T09:44:04.361Z,-1.35
2022-12-17T09:46:58.857Z,-1.37
2022-12-17T09:49:47.248Z,-1.43
2022-12-17T09:52:39.822Z,-1.44
2022-12-17T09:55:35.234Z,-1.51
2022-12-17T09:58:21.641Z,-1.60
2022-12-17T10:01:11.238Z,-1.60
2022-12-17T10:04:05.606Z,-1.49
2022-12-17T10:06:51.560Z,-1.39
2022-12-17T10:09:37.916Z,-1.43
2022-12-17T10:12:32.005Z,-1.45
2022-12-17T10:15:17.416Z,-1.39
2022-12-17T10:18:04.501Z,-1.41
2022-12-17T10:20:55.199Z,-1.30
2022-12-17T10:23:45.346Z,-1.40
2022-12-17T10:26:35.811Z,-1.15
2022-12-17T10:29:23.685Z,-1.04
2022-12-17T10:32:09.826Z,-1.13
2022-12-17T10:35:03.298Z,-1.10
2022-12-17T10:37:53.087Z,-1.11
2022-12-17T10:40:44.232Z,-1.18
2022-12-17T10:43:47.550Z,-1.15
2022-12-17T10:46:43.175Z,-1.17
2022-12-17T10:49:30.969Z,-0.99
2022-12-17T10:52:25.199Z,-1.04
2022-12-17T10:55:15.849Z,-0.89
2022-12-17T10:58:01.982Z,-1.03
2022-12-17T11:00:50.855Z,-0.82
2022-12-17T11:03:57.371Z,-0.65
2022-12-17T11:06:47.775Z,-0.62
2022-12-17T11:09:50.968Z,-0.52
2022-12-17T11:12:39.226Z,-0.24
2022-12-17T11:15:35.415Z,-0.24
2022-12-17T11:18:37.088Z,-0.21
2022-12-17T11:21:27.707Z,-0.22
2022-12-17T11:24:21.994Z,-0.25
2022-12-17T11:27:14.916Z,-0.23
2022-12-17T11:30:00.587Z,-0.09
2022-12-17T11:33:13.861Z,-0.10
2022-12-17T11:36:06.412Z,-0.01
2022-12-17T11:38:57.342Z,-0.16
2022-12-17T11:41:57.317Z,0.03
2022-12-17T11:44:58.588Z,-0.02
2022-12-17T11:47:59.252Z,0.19
2022-12-17T11:50:51.241Z,0.35
2022-12-17T11:53:58.958Z,0.65
2022-12-17T11:56:49.623Z,0.60
2022-12-17T11:59:42.061Z,0.64
2022-12-17T12:02:42.750Z,0.54
2022-12-17T12:05:40.765Z,0.68
2022-12-17T12:08:37.764Z,0.74
2022-12-17T12:11:35.148Z,0.63
2022-12-17T12:14:37.518Z,0.82
2022-12-17T12:17:40.586Z,0.83
2022-12-17T12:20:40.238Z,0.84
2022-12-17T12:23:34.264Z,0.39
2022-12-17T12:26:31.279Z,0.33
2022-12-17T12:32:31.188Z,0.18
2022-12-17T12:35:30.727Z,0.09
2022-12-17T12:38:16.893Z,0.17
2022-12-17T12:41:17.361Z,0.39
2022-12-17T12:44:13.964Z,0.86
2022-12-17T12:47:06.151Z,0.67
2022-12-17T12:50:04.749Z,1.03
2022-12-17T12:52:53.342Z,1.30
2022-12-17T12:55:38.598Z,1.04
2022-12-17T12:58:42.833Z,1.50
2022-12-17T13:01:31.888Z,1.40
2022-12-17T13:04:21.501Z,1.07
2022-12-17T13:06:54.518Z,1.14
2022-12-17T13:09:35.129Z,0.66
2022-12-17T13:12:25.569Z,0.44
2022-12-17T13:15:12.479Z,0.68
2022-12-17T13:17:45.891Z,0.84
2022-12-17T13:20:27.192Z,1.07
2022-12-17T13:23:14.778Z,1.35
2022-12-17T13:25:48.315Z,0.76
2022-12-17T13:28:31.078Z,0.61
2022-12-17T13:31:04.103Z,0.21
2022-12-17T13:33:40.485Z,0.07
2022-12-17T13:36:19.053Z,0.03
2022-12-17T13:38:56.122Z,0.14
2022-12-17T13:41:31.489Z,0.46
2022-12-17T13:44:03.036Z,0.58
2022-12-17T13:46:46.446Z,0.89
2022-12-17T13:49:19.106Z,0.97
2022-12-17T13:51:47.314Z,1.15
2022-12-17T13:54:18.128Z,0.87
2022-12-17T13:56:47.664Z,0.59
2022-12-17T13:59:21.267Z,0.15
2022-12-17T14:01:51.401Z,0.00
2022-12-17T14:04:24.468Z,-0.09
2022-12-17T14:06:53.663Z,-0.24
2022-12-17T14:09:26.186Z,-0.31
2022-12-17T14:12:13.777Z,-0.38
2022-12-17T14:14:44.820Z,-0.42
2022-12-17T14:17:19.158Z,-0.47
2022-12-17T14:19:48.350Z,-0.51
2022-12-17T14:22:26.111Z,-0.63
2022-12-17T14:24:54.173Z,-0.66
2022-12-17T14:27:32.110Z,-0.73
2022-12-17T14:30:00.194Z,-0.91
2022-12-17T14:32:35.043Z,-0.89
2022-12-17T14:35:03.516Z,-0.96
2022-12-17T14:37:32.377Z,-1.02
2022-12-17T14:40:04.016Z,-1.09
2022-12-17T14:42:38.311Z,-1.27
2022-12-17T14:45:21.605Z,-1.27
2022-12-17T14:47:54.699Z,-1.41
2022-12-17T14:50:30.275Z,-1.35
2022-12-17T14:52:59.675Z,-1.38
2022-12-17T14:55:37.122Z,-1.35
2022-12-17T14:58:18.888Z,-1.40
2022-12-17T15:00:50.015Z,-1.46
2022-12-17T15:03:27.491Z,-1.52
2022-12-17T15:05:59.280Z,-1.67
2022-12-17T15:08:27.841Z,-1.62
2022-12-17T15:10:59.692Z,-1.58
2022-12-17T15:13:32.875Z,-1.55
2022-12-17T15:16:00.876Z,-1.54
2022-12-17T15:18:29.369Z,-1.59
2022-12-17T15:21:03.032Z,-1.59
2022-12-17T15:23:32.322Z,-1.69
2022-12-17T15:26:00.232Z,-1.58
2022-12-17T15:28:29.547Z,-1.57
2022-12-17T15:30:57.437Z,-1.58
2022-12-17T15:33:25.293Z,-1.69
2022-12-17T15:35:53.209Z,-1.63
2022-12-17T15:38:21.391Z,-1.79
2022-12-17T15:40:49.260Z,-1.65
2022-12-17T15:43:16.291Z,-1.70
2022-12-17T15:45:48.667Z,-1.76
2022-12-17T15:48:29.387Z,-1.85
2022-12-17T15:50:57.489Z,-1.80
2022-12-17T15:53:25.450Z,-1.81
2022-12-17T15:56:02.000Z,-2.08
2022-12-17T15:58:30.463Z,-1.94
2022-12-17T16:01:00.643Z,-1.93
2022-12-17T16:03:28.803Z,-1.91
2022-12-17T16:05:57.058Z,-1.96
2022-12-17T16:08:25.070Z,-1.98
2022-12-17T16:10:52.983Z,-2.10
2022-12-17T16:13:20.849Z,-2.04
2022-12-17T16:16:03.449Z,-2.07
2022-12-17T16:18:38.672Z,-1.95
2022-12-17T16:21:09.880Z,-2.09
2022-12-17T16:23:38.291Z,-1.99
2022-12-17T16:26:08.243Z,-2.00
2022-12-17T16:28:38.026Z,-1.98
2022-12-17T16:31:09.272Z,-1.99
2022-12-17T16:33:40.585Z,-2.03
2022-12-17T16:36:12.071Z,-2.00
2022-12-17T16:38:44.442Z,-2.12
2022-12-17T16:41:13.433Z,-2.11
2022-12-17T16:43:42.698Z,-2.20
2022-12-17T16:46:26.392Z,-2.26
2022-12-17T16:48:56.910Z,-2.26
2022-12-17T16:51:29.351Z,-2.28
2022-12-17T16:53:59.818Z,-2.42
2022-12-17T16:56:29.354Z,-2.33
2022-12-17T16:58:57.998Z,-2.34
2022-12-17T17:01:28.428Z,-2.40
2022-12-17T17:03:58.642Z,-2.45
2022-12-17T17:06:31.868Z,-2.36
2022-12-17T17:09:04.505Z,-2.40
2022-12-17T17:11:34.558Z,-2.40
2022-12-17T17:14:02.792Z,-2.46
2022-12-17T17:16:34.244Z,-2.54
2022-12-17T17:19:04.493Z,-2.48
2022-12-17T17:21:36.650Z,-2.48
2022-12-17T17:24:08.197Z,-2.54
2022-12-17T17:26:36.349Z,-2.57
2022-12-17T17:29:20.340Z,-2.71
2022-12-17T17:35:49.814Z,-2.77
2022-12-17T17:39:03.766Z,-2.69
2022-12-17T17:41:35.063Z,-2.70
2022-12-17T17:44:05.069Z,-2.69
2022-12-17T17:46:39.054Z,-2.73
2022-12-17T17:49:17.953Z,-2.74
2022-12-17T17:54:45.680Z,-2.78
2022-12-17T17:57:19.258Z,-2.72
2022-12-17T18:00:19.978Z,-2.73
2022-12-17T18:02:50.411Z,-2.84
2022-12-17T18:05:19.141Z,-2.83
2022-12-17T18:07:49.099Z,-2.80
2022-12-17T18:10:18.576Z,-2.80
2022-12-17T18:13:05.433Z,-2.81
2022-12-17T18:15:33.397Z,-2.76
2022-12-17T18:18:03.723Z,-2.80
2022-12-17T18:20:31.704Z,-2.80
2022-12-17T18:22:59.775Z,-2.78
2022-12-17T18:25:38.180Z,-2.80
2022-12-17T18:28:06.179Z,-2.80
2022-12-17T18:30:34.547Z,-2.84
2022-12-17T18:33:02.465Z,-2.80
2022-12-17T18:35:30.329Z,-2.82
2022-12-17T18:38:02.706Z,-2.82
2022-12-17T18:40:36.458Z,-2.83
2022-12-17T18:43:27.825Z,-2.84
2022-12-17T18:45:57.338Z,-2.85
2022-12-17T18:52:16.691Z,-2.81
2022-12-17T18:54:45.786Z,-2.83
2022-12-17T18:57:21.022Z,-2.82
2022-12-17T19:00:14.950Z,-2.87
2022-12-17T19:02:44.264Z,-2.80
2022-12-17T19:05:12.350Z,-2.80
2022-12-17T19:07:40.184Z,-2.79
2022-12-17T19:13:09.057Z,-2.82
2022-12-17T19:16:12.797Z,-2.81
2022-12-17T19:18:41.349Z,-2.82
2022-12-17T19:21:12.627Z,-2.87
2022-12-17T19:23:40.465Z,-2.88
2022-12-17T19:26:10.664Z,-2.84
2022-12-17T19:28:40.903Z,-2.82
2022-12-17T19:31:09.117Z,-2.82
2022-12-17T19:33:37.291Z,-2.85
2022-12-17T19:36:18.096Z,-2.79
2022-12-17T19:38:46.602Z,-2.86
2022-12-17T19:41:35.429Z,-2.91
2022-12-17T19:44:06.854Z,-2.89
2022-12-17T19:46:42.089Z,-2.99
2022-12-17T19:49:13.226Z,-3.03
2022-12-17T19:51:44.195Z,-2.94
2022-12-17T19:54:14.741Z,-3.05
2022-12-17T19:56:44.114Z,-2.92
2022-12-17T19:59:14.106Z,-2.92
2022-12-17T20:01:44.715Z,-2.92
2022-12-17T20:04:14.022Z,-2.98
2022-12-17T20:06:42.015Z,-2.98
2022-12-17T20:09:11.978Z,-2.97
2022-12-17T20:11:40.477Z,-2.97
2022-12-17T20:14:11.663Z,-2.97
2022-12-17T20:16:42.924Z,-2.98
2022-12-17T20:19:14.964Z,-3.00
2022-12-17T20:21:43.267Z,-3.01
2022-12-17T20:24:11.515Z,-3.04
2022-12-17T20:26:43.378Z,-3.14
2022-12-17T20:29:14.003Z,-3.11
2022-12-17T20:31:51.971Z,-3.13
2022-12-17T20:34:24.336Z,-3.18
2022-12-17T20:36:52.785Z,-3.15
2022-12-17T20:39:26.709Z,-3.16
2022-12-17T20:41:57.530Z,-3.26
2022-12-17T20:44:25.919Z,-3.31
2022-12-17T20:46:55.325Z,-3.28
2022-12-17T20:49:23.216Z,-3.26
2022-12-17T20:51:51.032Z,-3.30
2022-12-17T20:54:19.350Z,-3.29
2022-12-17T20:56:47.433Z,-3.30
2022-12-17T20:59:17.816Z,-3.28
2022-12-17T21:01:51.688Z,-3.38
2022-12-17T21:04:25.972Z,-3.35
2022-12-17T21:06:55.806Z,-3.42
2022-12-17T21:09:28.783Z,-3.43
2022-12-17T21:11:56.667Z,-3.42
2022-12-17T21:14:24.651Z,-3.41
2022-12-17T21:16:52.513Z,-3.43
2022-12-17T21:19:20.913Z,-3.42
2022-12-17T21:21:50.857Z,-3.48
2022-12-17T21:24:18.776Z,-3.43
2022-12-17T21:26:47.254Z,-3.42
2022-12-17T21:29:15.751Z,-3.42
2022-12-17T21:31:46.359Z,-3.40
2022-12-17T21:34:16.844Z,-3.46
2022-12-17T21:36:45.247Z,-3.45
2022-12-17T21:39:16.703Z,-3.49
2022-12-17T21:42:08.044Z,-3.52
2022-12-17T21:44:36.704Z,-3.54
2022-12-17T21:47:04.751Z,-3.55
2022-12-17T21:49:32.821Z,-3.52
2022-12-17T21:52:02.024Z,-3.55
2022-12-17T21:54:31.379Z,-3.57
2022-12-17T21:56:59.401Z,-3.56
2022-12-17T21:59:27.397Z,-3.56
2022-12-17T22:01:57.124Z,-3.60
2022-12-17T22:04:26.443Z,-3.58
2022-12-17T22:06:57.641Z,-3.63
2022-12-17T22:09:56.421Z,-3.63
2022-12-17T22:12:48.143Z,-3.65
2022-12-17T22:15:18.372Z,-3.60
2022-12-17T22:17:46.972Z,-3.65
2022-12-17T22:20:17.389Z,-3.75
2022-12-17T22:22:45.857Z,-3.75
2022-12-17T22:25:15.909Z,-3.77
2022-12-17T22:27:44.037Z,-3.73
2022-12-17T22:30:33.624Z,-3.76
2022-12-17T22:33:08.528Z,-3.74
2022-12-17T22:36:47.360Z,-3.77
2022-12-17T22:42:31.040Z,-3.81
2022-12-17T22:44:49.373Z,-3.75
2022-12-17T22:44:55.248Z,-3.77
2022-12-17T22:47:25.911Z,-3.73
2022-12-17T22:49:53.957Z,-3.78
2022-12-17T22:52:22.385Z,-3.77
2022-12-17T22:54:50.750Z,-3.81
2022-12-17T22:57:36.868Z,-3.80
2022-12-17T23:00:12.164Z,-3.83
2022-12-17T23:02:40.705Z,-3.83
2022-12-17T23:05:09.408Z,-3.86
2022-12-17T23:07:39.212Z,-3.83
2022-12-17T23:10:07.987Z,-3.78
2022-12-17T23:12:52.852Z,-3.83
2022-12-17T23:15:23.634Z,-3.71
2022-12-17T23:17:52.958Z,-3.73
2022-12-17T23:20:21.450Z,-3.77
2022-12-17T23:22:49.274Z,-3.76
2022-12-17T23:25:17.471Z,-3.81
2022-12-17T23:27:47.251Z,-3.78
2022-12-17T23:30:16.944Z,-3.85
2022-12-17T23:32:45.391Z,-3.86
2022-12-17T23:35:14.394Z,-3.78
2022-12-17T23:37:42.704Z,-3.89
2022-12-17T23:40:12.936Z,-3.82
2022-12-17T23:42:40.933Z,-3.85
2022-12-17T23:45:11.887Z,-3.89
2022-12-17T23:47:42.535Z,-3.89
2022-12-17T23:50:11.694Z,-3.89
2022-12-17T23:52:39.855Z,-3.96
2022-12-17T23:55:08.260Z,-3.94
2022-12-17T23:57:36.137Z,-3.86
